Time;durP1;ratioP1;P1;durP2;ratioP2;P2;SDS_P1;SDS_P2;PMS_P1;PMS_P2;Temp;Humidity;BMP_temperature;BMP_pressure;BME280_temperature;BME280_humidity;BME280_pressure;Samples;Min_cycle;Max_cycle;Signal;HPM_P1;HPM_P2
2023/07/21 00:01:09;;;;;;;3.45;2.10;;;16.30;99.90;;;;;;6239640;23;20012;-89
2023/07/21 00:03:35;;;;;;;4.78;2.10;;;16.20;99.90;;;;;;6240759;23;20065;-89
2023/07/21 00:06:09;;;;;;;2.75;2.08;;;16.20;99.90;;;;;;6243338;22;20011;-89
2023/07/21 00:08:36;;;;;;;5.57;2.33;;;16.10;99.90;;;;;;6240607;23;20008;-88
2023/07/21 00:11:02;;;;;;;3.92;2.47;;;16.00;99.90;;;;;;6239818;23;20087;-88
2023/07/21 00:13:29;;;;;;;4.20;2.15;;;16.00;99.90;;;;;;6239711;23;20011;-89
2023/07/21 00:15:56;;;;;;;2.70;2.35;;;16.00;99.90;;;;;;6238558;23;20083;-89
2023/07/21 00:18:22;;;;;;;2.65;2.08;;;15.90;99.90;;;;;;6239035;22;20071;-88
2023/07/21 00:20:49;;;;;;;6.03;2.08;;;15.90;99.90;;;;;;6237945;23;20073;-88
2023/07/21 00:23:17;;;;;;;3.33;2.40;;;15.90;99.90;;;;;;6239700;22;20039;-89
2023/07/21 00:25:45;;;;;;;5.32;2.65;;;15.80;99.90;;;;;;6236735;23;20434;-89
2023/07/21 00:28:11;;;;;;;5.43;2.60;;;15.80;99.90;;;;;;6237447;23;20297;-89
2023/07/21 00:30:37;;;;;;;3.33;2.38;;;15.80;99.90;;;;;;6236811;23;20011;-85
2023/07/21 00:33:03;;;;;;;3.60;2.08;;;15.80;99.90;;;;;;6239998;22;20000;-88
2023/07/21 00:35:29;;;;;;;4.25;2.30;;;15.70;99.90;;;;;;6239512;23;20086;-88
2023/07/21 00:38:00;;;;;;;4.68;2.53;;;15.70;99.90;;;;;;6241540;22;19996;-89
2023/07/21 00:40:27;;;;;;;4.10;2.20;;;15.60;99.90;;;;;;6239764;22;20277;-88
2023/07/21 00:42:52;;;;;;;3.80;2.70;;;15.50;99.90;;;;;;6239457;22;20020;-89
2023/07/21 00:45:18;;;;;;;3.42;2.75;;;15.40;99.90;;;;;;6238796;22;20546;-89
2023/07/21 00:47:44;;;;;;;4.75;2.40;;;15.30;99.90;;;;;;6237173;23;20012;-90
2023/07/21 00:50:12;;;;;;;3.58;2.50;;;15.20;99.90;;;;;;6238563;22;20008;-88
2023/07/21 00:52:38;;;;;;;3.47;2.35;;;15.10;99.90;;;;;;6237549;23;20004;-88
2023/07/21 00:55:05;;;;;;;4.22;2.47;;;15.00;99.90;;;;;;6239258;22;20473;-88
2023/07/21 00:57:32;;;;;;;5.32;2.60;;;14.90;99.90;;;;;;6238504;23;20023;-89
2023/07/21 00:59:58;;;;;;;5.45;2.67;;;14.90;99.90;;;;;;6238329;22;20392;-88
2023/07/21 01:02:24;;;;;;;4.45;2.42;;;14.90;99.90;;;;;;6235869;23;20052;-88
2023/07/21 01:04:50;;;;;;;4.97;2.53;;;14.90;99.90;;;;;;6237630;23;20000;-88
2023/07/21 01:07:16;;;;;;;4.38;2.58;;;14.90;99.90;;;;;;6238287;22;20070;-85
2023/07/21 01:09:43;;;;;;;4.50;2.58;;;14.90;99.90;;;;;;6238775;22;20066;-88
2023/07/21 01:12:09;;;;;;;4.43;2.45;;;15.00;99.90;;;;;;6237709;22;20031;-89
2023/07/21 01:14:36;;;;;;;3.28;2.53;;;15.10;99.90;;;;;;6234293;23;20008;-87
2023/07/21 01:17:02;;;;;;;5.70;2.60;;;15.10;99.90;;;;;;6237904;22;20282;-88
2023/07/21 01:19:29;;;;;;;3.25;2.50;;;15.10;99.90;;;;;;6235901;23;20008;-89
2023/07/21 01:22:08;;;;;;;4.70;2.60;;;15.00;99.90;;;;;;6238095;22;20012;-88
2023/07/21 01:24:41;;;;;;;5.18;2.58;;;15.00;99.90;;;;;;6236598;23;20036;-88
2023/07/21 01:27:10;;;;;;;3.42;2.42;;;15.00;99.90;;;;;;6236604;23;20095;-89
2023/07/21 01:29:40;;;;;;;4.20;2.63;;;15.00;99.90;;;;;;6235609;23;21025;-90
2023/07/21 01:32:10;;;;;;;3.10;2.25;;;15.10;99.90;;;;;;6237416;22;20008;-88
2023/07/21 01:34:37;;;;;;;5.45;2.60;;;15.10;99.90;;;;;;6234815;23;20011;-89
2023/07/21 01:37:04;;;;;;;4.50;2.95;;;15.10;99.90;;;;;;6238114;23;20030;-89
2023/07/21 01:39:31;;;;;;;4.18;2.78;;;15.00;99.90;;;;;;6236662;22;20006;-89
2023/07/21 01:42:00;;;;;;;3.15;2.20;;;15.00;99.90;;;;;;6236124;23;20044;-89
2023/07/21 01:44:26;;;;;;;3.92;2.55;;;15.00;99.90;;;;;;6235819;23;20000;-89
2023/07/21 01:46:53;;;;;;;4.68;2.60;;;14.90;99.90;;;;;;6236888;22;20099;-89
2023/07/21 01:49:19;;;;;;;5.75;2.58;;;14.90;99.90;;;;;;6235173;23;20047;-89
2023/07/21 01:51:47;;;;;;;4.50;2.40;;;14.90;99.90;;;;;;6238002;22;20047;-89
2023/07/21 01:54:32;;;;;;;3.65;2.55;;;14.90;99.90;;;;;;6237272;22;20000;-89
2023/07/21 01:57:07;;;;;;;3.78;2.22;;;14.80;99.90;;;;;;6237831;22;20028;-89
2023/07/21 01:59:33;;;;;;;3.95;2.38;;;14.70;99.90;;;;;;6234578;23;20024;-88
2023/07/21 02:01:59;;;;;;;3.47;2.50;;;14.80;99.90;;;;;;6234956;23;20051;-89
2023/07/21 02:04:25;;;;;;;4.53;2.35;;;14.70;99.90;;;;;;6236432;22;20500;-88
2023/07/21 02:06:51;;;;;;;4.30;2.42;;;14.70;99.90;;;;;;6236992;22;20087;-86
2023/07/21 02:09:19;;;;;;;3.55;2.33;;;14.60;99.90;;;;;;6236474;22;20008;-89
2023/07/21 02:11:45;;;;;;;4.53;2.60;;;14.60;99.90;;;;;;6237422;22;20087;-88
2023/07/21 02:14:10;;;;;;;3.40;2.40;;;14.50;99.90;;;;;;6236489;22;20059;-89
2023/07/21 02:16:37;;;;;;;4.47;2.50;;;14.40;99.90;;;;;;6236737;22;20008;-89
2023/07/21 02:19:06;;;;;;;4.85;2.90;;;14.40;99.90;;;;;;6236332;22;20027;-88
2023/07/21 02:21:32;;;;;;;5.10;2.88;;;14.30;99.90;;;;;;6237054;22;20028;-90
2023/07/21 02:23:58;;;;;;;3.78;2.72;;;14.20;99.90;;;;;;6236886;22;20091;-90
2023/07/21 02:26:23;;;;;;;4.38;2.90;;;14.20;99.90;;;;;;6236256;23;20035;-88
2023/07/21 02:28:49;;;;;;;3.33;2.63;;;14.20;99.90;;;;;;6237377;23;20036;-90
2023/07/21 02:31:14;;;;;;;5.78;2.90;;;14.10;99.90;;;;;;6239328;22;20004;-89
2023/07/21 02:33:40;;;;;;;4.07;2.67;;;14.00;99.90;;;;;;6240217;22;20087;-86
2023/07/21 02:36:06;;;;;;;4.88;3.00;;;13.90;99.90;;;;;;6238972;22;20000;-88
2023/07/21 02:38:32;;;;;;;5.25;3.00;;;13.90;99.90;;;;;;6239953;22;20007;-88
2023/07/21 02:41:04;;;;;;;4.53;2.70;;;13.80;99.90;;;;;;6239306;22;20008;-89
2023/07/21 02:43:32;;;;;;;5.65;2.92;;;13.80;99.90;;;;;;6240657;22;20003;-90
2023/07/21 02:45:57;;;;;;;6.25;3.05;;;13.80;99.90;;;;;;6239723;22;20016;-89
2023/07/21 02:48:23;;;;;;;4.63;3.15;;;13.70;99.90;;;;;;6239449;22;20008;-89
2023/07/21 02:50:50;;;;;;;4.10;3.20;;;13.70;99.90;;;;;;6239427;22;20547;-89
2023/07/21 02:53:17;;;;;;;5.00;3.40;;;13.60;99.90;;;;;;6239485;22;20024;-89
2023/07/21 02:55:44;;;;;;;5.90;3.40;;;13.60;99.90;;;;;;6238075;23;20011;-89
2023/07/21 02:58:11;;;;;;;6.05;3.33;;;13.50;99.90;;;;;;6238814;22;20004;-88
2023/07/21 03:00:37;;;;;;;4.88;3.22;;;13.50;99.90;;;;;;6236840;23;20525;-89
2023/07/21 03:03:04;;;;;;;6.60;3.67;;;13.50;99.90;;;;;;6238874;22;20011;-89
2023/07/21 03:05:30;;;;;;;5.05;3.20;;;13.40;99.90;;;;;;6239420;22;20779;-89
2023/07/21 03:07:59;;;;;;;5.55;3.40;;;13.40;99.90;;;;;;6238730;22;20031;-89
2023/07/21 03:10:25;;;;;;;5.30;3.40;;;13.50;99.90;;;;;;6238316;22;20015;-89
2023/07/21 03:12:51;;;;;;;5.53;3.58;;;13.60;99.90;;;;;;6236579;23;20004;-87
2023/07/21 03:15:16;;;;;;;4.88;3.42;;;13.60;99.90;;;;;;6236915;23;20012;-87
2023/07/21 03:17:42;;;;;;;6.43;3.50;;;13.70;99.90;;;;;;6236704;23;20041;-89
2023/07/21 03:20:12;;;;;;;5.20;3.30;;;13.80;99.90;;;;;;6238300;22;20011;-88
2023/07/21 03:22:44;;;;;;;5.80;3.78;;;13.80;99.90;;;;;;6237476;23;20408;-87
2023/07/21 03:25:12;;;;;;;6.43;3.50;;;13.80;99.90;;;;;;6238798;22;20035;-88
2023/07/21 03:27:39;;;;;;;7.22;3.88;;;13.80;99.90;;;;;;6238764;22;20004;-88
2023/07/21 03:30:06;;;;;;;5.70;3.50;;;13.90;99.90;;;;;;6237778;22;20000;-87
2023/07/21 03:32:32;;;;;;;5.40;3.15;;;13.80;99.90;;;;;;6237446;22;20015;-88
2023/07/21 03:34:57;;;;;;;5.82;3.95;;;13.70;99.90;;;;;;6235560;23;20011;-87
2023/07/21 03:37:25;;;;;;;7.03;3.97;;;13.70;99.90;;;;;;6236418;22;20003;-87
2023/07/21 03:39:51;;;;;;;5.35;3.47;;;13.60;99.90;;;;;;6239363;22;20023;-88
2023/07/21 03:42:16;;;;;;;6.95;3.83;;;13.60;99.90;;;;;;6236949;23;20393;-88
2023/07/21 03:44:50;;;;;;;7.22;3.53;;;13.60;99.90;;;;;;6238274;22;20024;-88
2023/07/21 03:47:19;;;;;;;5.75;3.60;;;13.50;99.90;;;;;;6238457;22;20016;-88
2023/07/21 03:49:45;;;;;;;7.03;3.65;;;13.40;99.90;;;;;;6238080;22;19996;-88
2023/07/21 03:52:11;;;;;;;5.93;3.92;;;13.30;99.90;;;;;;6238274;23;20043;-88
2023/07/21 03:54:37;;;;;;;6.68;4.00;;;13.20;99.90;;;;;;6238709;22;20000;-88
2023/07/21 03:57:03;;;;;;;7.93;3.53;;;13.10;99.90;;;;;;6238074;22;20008;-87
2023/07/21 03:59:29;;;;;;;6.13;3.72;;;13.00;99.90;;;;;;6237544;22;20001;-88
2023/07/21 04:01:55;;;;;;;5.63;3.53;;;12.90;99.90;;;;;;6238445;22;20114;-87
2023/07/21 04:04:21;;;;;;;6.47;3.35;;;12.80;99.90;;;;;;6236619;23;20420;-87
2023/07/21 04:06:46;;;;;;;7.22;4.00;;;12.80;99.90;;;;;;6237826;22;20034;-88
2023/07/21 04:09:13;;;;;;;7.22;3.90;;;12.70;99.90;;;;;;6238977;22;20008;-87
2023/07/21 04:11:39;;;;;;;5.88;3.72;;;12.60;99.90;;;;;;6238051;22;20004;-87
2023/07/21 04:14:04;;;;;;;7.25;3.95;;;12.60;99.90;;;;;;6235690;23;20000;-88
2023/07/21 04:16:30;;;;;;;6.93;3.88;;;12.50;99.90;;;;;;6235604;23;20046;-87
2023/07/21 04:18:56;;;;;;;7.38;3.78;;;12.40;99.90;;;;;;6233920;22;20023;-87
2023/07/21 04:21:22;;;;;;;7.50;4.45;;;12.40;99.90;;;;;;6234389;22;20043;-88
2023/07/21 04:23:48;;;;;;;6.18;4.10;;;12.30;99.90;;;;;;6233722;22;20008;-88
2023/07/21 04:26:14;;;;;;;6.53;4.10;;;12.30;99.90;;;;;;6234397;22;20012;-87
2023/07/21 04:28:41;;;;;;;7.57;3.80;;;12.30;99.90;;;;;;6233681;22;20098;-86
2023/07/21 04:31:08;;;;;;;6.88;3.80;;;12.30;99.90;;;;;;6233611;22;20468;-87
2023/07/21 04:33:35;;;;;;;8.57;4.07;;;12.30;99.90;;;;;;6232975;22;20034;-87
2023/07/21 04:36:01;;;;;;;5.82;3.90;;;12.30;99.90;;;;;;6231444;22;20325;-87
2023/07/21 04:38:27;;;;;;;8.80;3.85;;;12.30;99.90;;;;;;6235683;22;20373;-87
2023/07/21 04:40:52;;;;;;;7.18;3.95;;;12.30;99.90;;;;;;6235207;22;20018;-88
2023/07/21 04:43:18;;;;;;;6.55;4.05;;;12.30;99.90;;;;;;6236696;22;20036;-87
2023/07/21 04:45:44;;;;;;;7.50;4.13;;;12.40;99.90;;;;;;6235710;22;20019;-90
2023/07/21 04:48:09;;;;;;;9.10;4.22;;;12.40;99.90;;;;;;6235696;22;20004;-89
2023/07/21 04:50:35;;;;;;;7.82;4.00;;;12.50;99.90;;;;;;6235331;22;20051;-85
2023/07/21 04:53:01;;;;;;;7.50;4.10;;;12.60;99.90;;;;;;6236334;22;20008;-88
2023/07/21 04:55:27;;;;;;;7.68;3.70;;;12.60;99.90;;;;;;6235753;22;20030;-88
2023/07/21 04:57:53;;;;;;;5.60;4.05;;;12.70;99.90;;;;;;6235852;22;20562;-88
2023/07/21 05:00:19;;;;;;;6.75;3.72;;;12.70;99.90;;;;;;6235762;22;20449;-88
2023/07/21 05:02:45;;;;;;;7.32;4.38;;;12.70;99.90;;;;;;6234225;22;20020;-88
2023/07/21 05:05:10;;;;;;;6.25;3.70;;;12.70;99.90;;;;;;6231155;23;20039;-89
2023/07/21 05:07:36;;;;;;;5.82;4.10;;;12.60;99.90;;;;;;6236685;22;20012;-88
2023/07/21 05:10:03;;;;;;;6.03;4.10;;;12.70;99.90;;;;;;6236434;22;20018;-87
2023/07/21 05:12:29;;;;;;;9.23;4.40;;;12.70;99.90;;;;;;6236459;22;20038;-88
2023/07/21 05:14:54;;;;;;;9.23;4.45;;;12.70;99.90;;;;;;6235921;22;20404;-88
2023/07/21 05:17:20;;;;;;;6.65;3.95;;;12.70;99.90;;;;;;6234080;22;20058;-88
2023/07/21 05:19:46;;;;;;;7.65;4.57;;;12.80;99.90;;;;;;6233920;22;20000;-88
2023/07/21 05:22:13;;;;;;;7.85;4.40;;;12.80;99.90;;;;;;6233549;22;20031;-87
2023/07/21 05:24:39;;;;;;;6.50;4.07;;;12.90;99.90;;;;;;6232819;22;20066;-87
2023/07/21 05:27:05;;;;;;;8.55;4.80;;;12.90;99.90;;;;;;6234639;22;20004;-87
2023/07/21 05:29:33;;;;;;;7.43;4.50;;;13.00;99.90;;;;;;6233814;23;20425;-87
2023/07/21 05:31:58;;;;;;;6.75;4.57;;;13.00;99.90;;;;;;6235844;22;20404;-87
2023/07/21 05:34:24;;;;;;;8.32;4.50;;;13.10;99.90;;;;;;6234527;23;20004;-88
2023/07/21 05:36:49;;;;;;;9.82;4.40;;;13.20;99.90;;;;;;6234514;23;20004;-88
2023/07/21 05:39:16;;;;;;;8.45;4.40;;;13.20;99.90;;;;;;6235574;22;20420;-87
2023/07/21 05:41:41;;;;;;;8.00;4.30;;;13.30;99.90;;;;;;6233750;22;20364;-88
2023/07/21 05:44:08;;;;;;;8.07;3.95;;;13.40;99.90;;;;;;6233897;22;20008;-87
2023/07/21 05:46:38;;;;;;;7.20;4.28;;;13.50;99.90;;;;;;6234336;22;20023;-88
2023/07/21 05:49:05;;;;;;;7.93;4.20;;;13.60;99.90;;;;;;6234683;22;20502;-89
2023/07/21 05:51:31;;;;;;;9.20;4.90;;;13.60;99.90;;;;;;6234982;22;20385;-86
2023/07/21 05:53:57;;;;;;;7.50;4.25;;;13.70;99.90;;;;;;6234082;23;20004;-87
2023/07/21 05:56:22;;;;;;;6.70;4.32;;;13.80;99.90;;;;;;6236763;22;20509;-88
2023/07/21 05:58:48;;;;;;;9.43;4.50;;;13.90;99.90;;;;;;6236468;22;20400;-87
2023/07/21 06:01:13;;;;;;;7.40;4.75;;;14.00;99.90;;;;;;6235236;22;20016;-88
2023/07/21 06:03:39;;;;;;;7.07;4.53;;;14.10;99.90;;;;;;6235380;22;20342;-84
2023/07/21 06:06:05;;;;;;;6.53;4.60;;;14.20;99.90;;;;;;6232945;22;20008;-87
2023/07/21 06:08:30;;;;;;;21.08;13.13;;;14.30;99.90;;;;;;6234110;22;20008;-87
2023/07/21 06:10:57;;;;;;;12.65;6.75;;;14.40;99.90;;;;;;6234230;23;20991;-87
2023/07/21 06:13:23;;;;;;;8.20;5.43;;;14.50;99.90;;;;;;6236059;22;20012;-87
2023/07/21 06:15:49;;;;;;;7.55;4.78;;;14.50;99.90;;;;;;6236310;22;20032;-87
2023/07/21 06:18:15;;;;;;;6.78;4.60;;;14.70;99.90;;;;;;6234055;22;20011;-86
2023/07/21 06:20:40;;;;;;;9.82;4.80;;;14.80;99.90;;;;;;6232055;22;20317;-86
2023/07/21 06:23:06;;;;;;;6.35;4.60;;;14.80;99.90;;;;;;6233801;22;20004;-88
2023/07/21 06:25:32;;;;;;;41.30;30.58;;;14.90;99.90;;;;;;6232499;22;20000;-87
2023/07/21 06:27:57;;;;;;;17.33;12.02;;;15.00;99.90;;;;;;6232983;22;20091;-85
2023/07/21 06:30:23;;;;;;;11.38;6.25;;;15.10;99.90;;;;;;6234789;22;20083;-87
2023/07/21 06:32:49;;;;;;;8.77;5.45;;;15.20;99.90;;;;;;6233991;22;20773;-87
2023/07/21 06:35:14;;;;;;;8.63;4.93;;;15.30;99.90;;;;;;6228801;22;20012;-86
2023/07/21 06:37:40;;;;;;;9.07;5.57;;;15.40;99.90;;;;;;6231684;22;20004;-87
2023/07/21 06:40:07;;;;;;;7.97;5.00;;;15.60;99.90;;;;;;6233823;22;20004;-87
2023/07/21 06:42:33;;;;;;;16.80;9.32;;;15.70;99.90;;;;;;6231281;23;20416;-87
2023/07/21 06:44:59;;;;;;;13.68;7.47;;;15.90;99.90;;;;;;6227575;22;20007;-86
2023/07/21 06:47:24;;;;;;;9.02;6.07;;;16.10;99.90;;;;;;6226239;22;20428;-87
2023/07/21 06:49:50;;;;;;;11.27;6.40;;;16.20;99.90;;;;;;6229324;22;20016;-88
2023/07/21 06:52:16;;;;;;;8.77;5.63;;;16.40;99.90;;;;;;6230724;22;20340;-87
2023/07/21 06:54:42;;;;;;;8.23;5.72;;;16.50;99.90;;;;;;6230592;22;20000;-87
2023/07/21 06:57:10;;;;;;;34.47;19.85;;;16.70;99.90;;;;;;6228165;23;20117;-87
2023/07/21 06:59:36;;;;;;;8.18;5.57;;;16.90;99.90;;;;;;6232133;22;20655;-85
2023/07/21 07:02:01;;;;;;;6.85;4.75;;;17.10;99.90;;;;;;6233519;22;20016;-89
2023/07/21 07:04:27;;;;;;;7.90;5.60;;;17.30;99.90;;;;;;6232164;22;20046;-87
2023/07/21 07:06:55;;;;;;;7.00;5.00;;;17.40;99.90;;;;;;6234869;22;20077;-87
2023/07/21 07:09:24;;;;;;;10.30;5.10;;;17.40;99.90;;;;;;6232011;22;20015;-87
2023/07/21 07:11:50;;;;;;;7.38;5.05;;;17.50;99.90;;;;;;6234761;23;20015;-86
2023/07/21 07:14:16;;;;;;;7.00;5.40;;;17.50;99.90;;;;;;6235993;22;20032;-87
2023/07/21 07:16:41;;;;;;;7.78;5.15;;;17.50;99.90;;;;;;6235663;22;20104;-88
2023/07/21 07:19:07;;;;;;;9.13;5.50;;;17.70;99.90;;;;;;6236506;23;20012;-87
2023/07/21 07:21:33;;;;;;;9.52;5.07;;;17.80;99.90;;;;;;6239496;22;20020;-88
2023/07/21 07:23:59;;;;;;;7.47;5.28;;;17.90;99.90;;;;;;6238366;23;20101;-88
2023/07/21 07:26:24;;;;;;;7.50;5.22;;;18.20;99.90;;;;;;6239822;22;20008;-89
2023/07/21 07:28:50;;;;;;;7.43;5.22;;;18.60;99.90;;;;;;6242514;22;20008;-88
2023/07/21 07:31:15;;;;;;;7.50;5.25;;;18.80;99.60;;;;;;6241648;22;19996;-87
2023/07/21 07:33:42;;;;;;;6.65;4.88;;;19.20;99.20;;;;;;6238712;23;20514;-83
2023/07/21 07:36:08;;;;;;;8.60;5.32;;;19.50;98.30;;;;;;6241614;22;20034;-89
2023/07/21 07:38:33;;;;;;;9.38;5.15;;;19.80;96.50;;;;;;6241004;22;20084;-88
2023/07/21 07:41:10;;;;;;;7.63;5.35;;;20.10;95.20;;;;;;6240447;22;20082;-88
2023/07/21 07:43:36;;;;;;;7.57;5.18;;;20.40;92.20;;;;;;6242445;22;20031;-88
2023/07/21 07:46:07;;;;;;;6.85;4.68;;;20.70;89.10;;;;;;6239517;22;20325;-87
2023/07/21 07:48:33;;;;;;;5.75;4.32;;;22.30;80.10;;;;;;6241860;23;20485;-87
2023/07/21 07:51:02;;;;;;;5.88;3.75;;;24.20;71.60;;;;;;6241971;22;20008;-88
2023/07/21 07:53:28;;;;;;;5.22;3.88;;;25.90;63.00;;;;;;6241403;23;20049;-86
2023/07/21 07:55:54;;;;;;;5.10;3.80;;;27.50;56.80;;;;;;6239116;22;20004;-87
2023/07/21 07:58:19;;;;;;;5.28;3.85;;;29.50;51.10;;;;;;6240935;22;20008;-87
2023/07/21 08:00:47;;;;;;;5.47;4.00;;;31.50;45.90;;;;;;6238118;23;20012;-86
2023/07/21 08:03:14;;;;;;;5.28;3.90;;;33.20;42.90;;;;;;6236974;22;20014;-85
2023/07/21 08:05:41;;;;;;;4.45;3.08;;;33.90;40.20;;;;;;6239653;22;20031;-85
2023/07/21 08:08:08;;;;;;;5.28;3.60;;;34.70;38.00;;;;;;6237998;22;20004;-87
2023/07/21 08:10:34;;;;;;;7.68;3.67;;;35.00;36.30;;;;;;6243403;22;19996;-89
2023/07/21 08:13:04;;;;;;;3.78;3.35;;;35.60;35.90;;;;;;6242768;22;20359;-87
2023/07/21 08:15:30;;;;;;;4.32;3.20;;;35.80;34.60;;;;;;6240351;22;20071;-90
2023/07/21 08:17:56;;;;;;;4.35;3.33;;;35.30;33.60;;;;;;6240073;23;20015;-87
2023/07/21 08:20:21;;;;;;;4.95;3.30;;;35.10;34.80;;;;;;6246132;23;20023;-86
2023/07/21 08:22:50;;;;;;;4.20;3.10;;;35.70;34.80;;;;;;6244402;22;20436;-86
2023/07/21 08:25:17;;;;;;;5.60;3.30;;;36.60;33.90;;;;;;6240282;22;20000;-85
2023/07/21 08:27:43;;;;;;;4.00;3.30;;;36.40;31.70;;;;;;6241178;22;20014;-87
2023/07/21 08:30:10;;;;;;;4.57;3.10;;;36.80;33.10;;;;;;6242291;23;20016;-88
2023/07/21 08:32:37;;;;;;;4.32;3.20;;;37.10;32.30;;;;;;6241502;22;20008;-88
2023/07/21 08:35:03;;;;;;;4.63;2.95;;;37.00;32.80;;;;;;6242525;22;20027;-86
2023/07/21 08:37:30;;;;;;;4.88;3.25;;;37.50;32.10;;;;;;6238049;22;20004;-85
2023/07/21 08:39:55;;;;;;;4.53;3.42;;;37.20;32.00;;;;;;6236028;22;20004;-85
2023/07/21 08:42:23;;;;;;;4.35;3.40;;;37.80;31.30;;;;;;6236677;22;20712;-87
2023/07/21 08:44:52;;;;;;;3.72;3.15;;;38.80;32.20;;;;;;6237309;22;20015;-86
2023/07/21 08:47:18;;;;;;;3.83;3.25;;;39.40;30.40;;;;;;6238873;22;20090;-84
2023/07/21 08:49:45;;;;;;;5.28;3.30;;;38.70;30.00;;;;;;6239968;22;20008;-85
2023/07/21 08:52:10;;;;;;;4.68;3.58;;;38.70;30.60;;;;;;6241913;22;20594;-87
2023/07/21 08:54:36;;;;;;;4.22;3.42;;;39.00;31.40;;;;;;6238112;22;19996;-85
2023/07/21 08:57:02;;;;;;;6.47;3.50;;;38.80;29.50;;;;;;6239841;22;20576;-86
2023/07/21 08:59:28;;;;;;;4.60;3.17;;;37.90;30.70;;;;;;6239560;22;20076;-88
2023/07/21 09:01:53;;;;;;;4.25;3.30;;;37.60;31.20;;;;;;6241959;22;20016;-86
2023/07/21 09:04:21;;;;;;;4.28;3.88;;;38.10;30.30;;;;;;6239501;22;20006;-84
2023/07/21 09:06:54;;;;;;;7.18;3.78;;;38.10;30.70;;;;;;6240365;22;20011;-84
2023/07/21 09:09:21;;;;;;;4.35;3.60;;;38.10;32.20;;;;;;6237442;22;20011;-87
2023/07/21 09:11:48;;;;;;;6.75;3.55;;;37.70;30.80;;;;;;6237075;22;20080;-84
2023/07/21 09:14:14;;;;;;;4.25;3.63;;;37.50;31.20;;;;;;6237851;22;20031;-84
2023/07/21 09:16:40;;;;;;;5.43;3.88;;;37.30;32.00;;;;;;6236407;22;20059;-86
2023/07/21 09:19:07;;;;;;;5.15;4.20;;;37.30;30.70;;;;;;6234675;23;20012;-84
2023/07/21 09:21:35;;;;;;;4.32;3.83;;;37.90;31.90;;;;;;6237906;22;20668;-87
2023/07/21 09:24:05;;;;;;;6.18;4.05;;;37.70;30.80;;;;;;6235437;22;20008;-83
2023/07/21 09:26:31;;;;;;;3.58;3.22;;;37.30;31.10;;;;;;6234853;22;20081;-86
2023/07/21 09:28:57;;;;;;;5.22;3.78;;;36.80;31.40;;;;;;6237669;22;20023;-86
2023/07/21 09:31:28;;;;;;;5.50;3.72;;;36.40;33.10;;;;;;6236422;22;20008;-84
2023/07/21 09:33:54;;;;;;;5.32;3.88;;;35.80;32.40;;;;;;6238838;22;20027;-86
2023/07/21 09:36:22;;;;;;;7.00;4.20;;;35.30;33.50;;;;;;6236055;22;20016;-85
2023/07/21 09:38:50;;;;;;;4.63;4.05;;;34.90;32.90;;;;;;6236451;22;20008;-86
2023/07/21 09:41:21;;;;;;;4.15;3.75;;;34.50;33.60;;;;;;6234646;22;20004;-83
2023/07/21 09:43:48;;;;;;;3.83;3.35;;;34.00;35.20;;;;;;6237885;22;20011;-86
2023/07/21 09:46:14;;;;;;;6.22;4.20;;;33.90;33.90;;;;;;6237266;22;20396;-86
2023/07/21 09:48:41;;;;;;;5.40;3.90;;;33.80;34.20;;;;;;6238917;22;20015;-85
2023/07/21 09:51:07;;;;;;;5.88;3.70;;;34.00;35.20;;;;;;6236637;22;20007;-87
2023/07/21 09:53:41;;;;;;;5.20;4.15;;;34.20;35.00;;;;;;6241436;22;20028;-86
2023/07/21 09:56:11;;;;;;;5.63;3.90;;;34.10;35.20;;;;;;6238789;22;20606;-86
2023/07/21 09:58:51;;;;;;;5.05;3.83;;;34.30;34.10;;;;;;6234369;23;20466;-85
2023/07/21 10:01:17;;;;;;;4.65;4.10;;;34.40;33.30;;;;;;6232499;22;20082;-85
2023/07/21 10:03:44;;;;;;;4.28;3.50;;;33.80;36.30;;;;;;6232401;22;20549;-86
2023/07/21 10:06:10;;;;;;;7.68;3.83;;;32.90;34.70;;;;;;6236509;22;20008;-85
2023/07/21 10:08:36;;;;;;;5.78;4.00;;;31.60;35.60;;;;;;6237298;22;20594;-85
2023/07/21 10:11:05;;;;;;;7.72;4.88;;;31.10;37.90;;;;;;6229330;22;20495;-84
2023/07/21 10:13:32;;;;;;;5.80;4.40;;;31.50;39.70;;;;;;6229267;22;20161;-84
2023/07/21 10:16:07;;;;;;;7.18;4.18;;;32.80;38.00;;;;;;6231440;22;20008;-85
2023/07/21 10:18:33;;;;;;;4.47;3.80;;;34.50;34.40;;;;;;6229682;22;20018;-84
2023/07/21 10:23:42;;;;;;;4.80;4.28;;;38.40;33.30;;;;;;6185815;22;20031;-76
2023/07/21 10:26:08;;;;;;;5.05;4.00;;;38.80;30.10;;;;;;6213823;22;20071;-75
2023/07/21 10:28:34;;;;;;;5.40;4.03;;;37.90;31.30;;;;;;6223934;22;20320;-75
2023/07/21 10:31:24;;;;;;;5.55;4.47;;;36.80;30.80;;;;;;6227920;22;20771;-78
2023/07/21 10:34:03;;;;;;;5.82;4.13;;;35.20;33.70;;;;;;6228850;22;20695;-74
2023/07/21 10:36:39;;;;;;;6.50;4.57;;;33.60;34.20;;;;;;6227717;22;20016;-74
2023/07/21 10:39:10;;;;;;;5.25;3.92;;;32.00;37.10;;;;;;6225568;22;20103;-74
2023/07/21 10:41:37;;;;;;;7.13;3.92;;;31.10;38.40;;;;;;6226922;22;20016;-75
2023/07/21 10:44:05;;;;;;;5.32;4.50;;;30.80;39.40;;;;;;6227907;22;20568;-74
2023/07/21 10:46:38;;;;;;;6.00;4.00;;;31.50;39.80;;;;;;6227016;22;20042;-74
2023/07/21 10:49:05;;;;;;;6.63;4.18;;;33.20;38.90;;;;;;6225613;23;20012;-74
2023/07/21 10:51:31;;;;;;;6.22;4.10;;;34.70;36.00;;;;;;6227826;22;20037;-75
2023/07/21 10:53:56;;;;;;;5.97;4.47;;;34.90;34.20;;;;;;6225434;23;20000;-76
2023/07/21 10:56:23;;;;;;;5.15;4.22;;;34.10;33.80;;;;;;6228029;22;20027;-74
2023/07/21 10:58:49;;;;;;;6.80;4.38;;;33.50;34.90;;;;;;6227509;22;20027;-74
2023/07/21 11:01:19;;;;;;;5.50;3.83;;;32.70;36.70;;;;;;6228197;22;20015;-75
2023/07/21 11:03:48;;;;;;;5.63;4.20;;;32.30;36.90;;;;;;6227378;22;20019;-74
2023/07/21 11:06:14;;;;;;;6.22;4.00;;;32.00;38.40;;;;;;6228151;22;20008;-74
2023/07/21 11:08:40;;;;;;;6.75;4.00;;;31.50;38.80;;;;;;6228493;22;20083;-73
2023/07/21 11:11:08;;;;;;;7.65;4.55;;;31.20;38.20;;;;;;6226867;22;20051;-74
2023/07/21 11:13:34;;;;;;;5.38;3.90;;;31.20;39.80;;;;;;6227054;22;20462;-74
2023/07/21 11:16:00;;;;;;;5.05;4.28;;;33.10;39.10;;;;;;6229147;22;20007;-74
2023/07/21 11:18:28;;;;;;;6.43;4.47;;;34.50;38.40;;;;;;6228564;22;20008;-74
2023/07/21 11:20:55;;;;;;;5.13;4.03;;;36.20;34.60;;;;;;6226994;22;20059;-74
2023/07/21 11:23:21;;;;;;;4.95;4.05;;;37.60;33.60;;;;;;6226724;22;20109;-74
2023/07/21 11:26:09;;;;;;;6.78;4.47;;;38.00;30.60;;;;;;6227726;22;20107;-74
2023/07/21 11:28:35;;;;;;;6.63;4.50;;;37.60;33.40;;;;;;6228190;22;20019;-75
2023/07/21 11:31:01;;;;;;;6.85;4.60;;;36.80;32.70;;;;;;6228042;22;20549;-74
2023/07/21 11:33:47;;;;;;;4.63;4.15;;;35.40;33.70;;;;;;6227559;22;20004;-75
2023/07/21 11:36:21;;;;;;;6.25;4.05;;;33.20;33.20;;;;;;6227942;22;20004;-74
2023/07/21 11:39:14;;;;;;;5.32;3.83;;;31.70;36.80;;;;;;6227253;22;20020;-74
2023/07/21 11:41:40;;;;;;;4.70;3.92;;;31.10;39.00;;;;;;6228085;22;20062;-74
2023/07/21 11:44:11;;;;;;;4.45;3.80;;;30.50;41.90;;;;;;6225527;23;20095;-74
2023/07/21 11:46:37;;;;;;;5.47;3.70;;;30.30;41.00;;;;;;6223656;23;20012;-74
2023/07/21 11:49:14;;;;;;;6.45;3.92;;;30.10;40.20;;;;;;6225056;22;20120;-74
2023/07/21 11:51:48;;;;;;;5.82;3.72;;;29.20;39.50;;;;;;6227659;22;20138;-74
2023/07/21 11:54:25;;;;;;;5.43;3.40;;;28.80;44.20;;;;;;6227396;22;20018;-74
2023/07/21 11:56:52;;;;;;;3.83;3.38;;;29.10;42.50;;;;;;6225386;23;20012;-73
2023/07/21 11:59:19;;;;;;;4.13;3.00;;;29.70;45.30;;;;;;6228428;22;20735;-74
2023/07/21 12:01:45;;;;;;;4.57;3.40;;;30.30;39.60;;;;;;6224968;22;20020;-76
2023/07/21 12:04:11;;;;;;;3.63;2.85;;;30.10;42.20;;;;;;6226070;22;20004;-75
2023/07/21 12:06:38;;;;;;;4.75;3.40;;;29.80;39.60;;;;;;6227208;22;20011;-75
2023/07/21 12:09:09;;;;;;;4.32;3.30;;;30.00;41.20;;;;;;6226129;23;20039;-76
2023/07/21 12:11:35;;;;;;;4.72;3.47;;;29.90;41.30;;;;;;6224367;22;20011;-75
2023/07/21 12:14:02;;;;;;;3.22;2.80;;;30.30;42.70;;;;;;6225533;23;20487;-75
2023/07/21 12:16:29;;;;;;;3.70;3.30;;;30.00;42.00;;;;;;6227933;22;20362;-76
2023/07/21 12:18:56;;;;;;;4.07;3.00;;;29.70;42.10;;;;;;6228910;22;20004;-76
2023/07/21 12:21:23;;;;;;;3.92;3.20;;;29.10;40.10;;;;;;6226030;23;20031;-75
2023/07/21 12:23:48;;;;;;;5.18;3.25;;;28.20;41.30;;;;;;6227666;22;20020;-75
2023/07/21 12:26:14;;;;;;;5.07;3.25;;;28.40;43.10;;;;;;6225520;23;20098;-76
2023/07/21 12:28:41;;;;;;;4.97;3.10;;;29.10;44.50;;;;;;6226126;23;20019;-76
2023/07/21 12:31:06;;;;;;;3.72;2.75;;;28.90;43.10;;;;;;6228110;23;20086;-75
2023/07/21 12:33:35;;;;;;;3.67;2.70;;;29.20;43.20;;;;;;6228362;22;20008;-76
2023/07/21 12:36:00;;;;;;;6.70;3.05;;;29.00;43.90;;;;;;6228246;22;20000;-75
2023/07/21 12:38:26;;;;;;;3.30;2.70;;;28.70;41.40;;;;;;6229671;22;20065;-74
2023/07/21 12:40:52;;;;;;;3.10;2.80;;;29.00;42.90;;;;;;6227177;22;20011;-74
2023/07/21 12:43:18;;;;;;;3.22;2.58;;;29.40;44.60;;;;;;6222081;22;20039;-75
2023/07/21 12:45:44;;;;;;;4.97;3.10;;;29.60;44.60;;;;;;6222037;23;20008;-76
2023/07/21 12:48:09;;;;;;;4.45;2.72;;;30.20;44.00;;;;;;6222497;22;20099;-76